Austin, Texas
Traffic Map
Current Weather Conditions
Austin, Texas
Broken Clouds
Broken Clouds
79°
Feels Like: 82°
Wind Chill: 79° Ceiling: 1600
Heat Index: 82° Visibility: 10mi
Dew Point: 74° Wind: 5mph
Humidity: 84% Direction: ° ()
Pressure: 29.98in Gusts: 0mph
Raw Report DataKATT 050951Z AUTO VRB04KT 10SM BKN016 26/23 A2998 RMK AO2 SLP136 T02610233
Traffic Incident Summary
Active as of:
Severity:
Category:
InformationThere was an issue retrieving the traffic information for this location. Please try a different location or try again shortly.
Advertisements
Track Severe Weather on mobile